Flight Track Log - Related Links

Times and Time Zones

All times are in EDT time to prevent confusion due to time zone crossing. See the DAL2041 flight status page for this flight to view local times or setup timezone preferences in your user account.


Time Position Orientation Groundspeed Altitude Reporting Facility
EDT Latitude Longitude Course Direction KTS MPH feet Rate Location/Type
Wed 05:16:00 PM 28.0000 -82.5333 348° North 170 196 900  Level Tampa TRACON
Wed 05:16:24 PM 28.0167 -82.5333 360° North 183 211 1,400 1,857 Climbing Tampa TRACON
Wed 05:17:24 PM 28.1000 -82.5500 350° North 253 291 3,500 2,550 Climbing Tampa TRACON
Wed 05:18:00 PM 28.2999 -82.7166 336° Northwest  Level FlightAware Approximate
Wed 05:18:24 PM 28.1667 -82.5667 348° North 280 322 6,500  Level Tampa TRACON
Wed 05:19:00 PM 28.4096 -82.7833 North  Level FlightAware Approximate
Wed 05:19:24 PM 28.2333 -82.6167 327° Northwest 288 331 9,300  Level Tampa TRACON
Wed 05:19:43 PM 28.2497 -82.6217 345° North 301 346 9,800 1,215 Climbing Jacksonville Center
Wed 05:20:00 PM 28.5342 -82.7947 344° North  Level FlightAware Approximate
Wed 05:20:43 PM 28.3292 -82.6686 333° Northwest 315 362 10,900  Level Jacksonville Center
Wed 05:21:00 PM 28.6576 -82.8214 348° North  Level FlightAware Approximate
Wed 05:21:43 PM 28.4253 -82.7178 336° Northwest 344 396 12,500  Level Jacksonville Center
Wed 05:22:43 PM 28.5317 -82.7625 340° North 379 436 14,400 2,000 Climbing Jacksonville Center
Wed 05:23:43 PM 28.6403 -82.8217 334° Northwest 408 470 16,500 1,900 Climbing Jacksonville Center
Wed 05:24:43 PM 28.7467 -82.8783 335° Northwest 421 484 18,200 1,700 Climbing Jacksonville Center
Wed 05:25:43 PM 28.8575 -82.9353 336° Northwest 426 490 19,900 1,050 Climbing Jacksonville Center
Wed 05:26:43 PM 28.9742 -82.9875 339° North 431 496 20,300 1,050 Climbing Jacksonville Center
Wed 05:27:43 PM 29.0953 -83.0281 344° North 437 503 22,000 1,500 Climbing Jacksonville Center
Wed 05:28:43 PM 29.2164 -83.0758 341° North 450 518 23,300 1,500 Climbing Jacksonville Center
Wed 05:29:43 PM 29.3414 -83.1214 342° North 455 524 25,000 1,650 Climbing Jacksonville Center
Wed 05:30:43 PM 29.4625 -83.1669 342° North 460 529 26,600 1,500 Climbing Jacksonville Center
Wed 05:31:43 PM 29.5875 -83.2125 342° North 460 529 28,000 700 Climbing Jacksonville Center
Wed 05:32:43 PM 29.7044 -83.2608 340° North 453 521 28,000  Level Jacksonville Center
Wed 05:33:43 PM 29.8275 -83.3044 343° North 453 521 28,000  Level Jacksonville Center
Wed 05:34:43 PM 29.9464 -83.3506 341° North 453 521 28,000  Level Jacksonville Center
Wed 05:35:43 PM 30.0672 -83.3967 342° North 453 521 28,000  Level Jacksonville Center
Wed 05:36:43 PM 30.1839 -83.4406 342° North 442 509 28,000  Level Jacksonville Center
Wed 05:37:43 PM 30.3028 -83.4844 342° North 442 509 28,000 -50 Level Jacksonville Center
Wed 05:38:43 PM 30.4214 -83.5308 341° North 447 514 27,900  Descending Jacksonville Center
Wed 05:39:43 PM 30.5403 -83.5775 341° North 447 514 28,000 50 Climbing Jacksonville Center
Wed 05:40:43 PM 30.6569 -83.6219 342° North 442 509 28,000  Level Jacksonville Center
Wed 05:41:43 PM 30.7758 -83.6686 341° North 442 509 28,000  Level Jacksonville Center
Wed 05:42:43 PM 30.8944 -83.7133 342° North 442 509 28,000  Level Jacksonville Center
Wed 05:43:43 PM 31.0153 -83.7603 342° North 447 514 28,000  Level Jacksonville Center
Wed 05:44:43 PM 31.1361 -83.8075 342° North 447 514 28,000  Level Jacksonville Center
Wed 05:45:43 PM 31.2547 -83.8550 341° North 447 514 28,000  Level Jacksonville Center
Wed 05:47:53 PM 31.5275 -83.9608 342° North 465 535 28,000  Level Atlanta Center
Wed 05:48:53 PM 31.6528 -83.9925 348° North 459 528 28,000  Level Atlanta Center
Wed 05:49:53 PM 31.7781 -84.0194 350° North 453 521 28,000  Level Atlanta Center
Wed 05:50:53 PM 31.9053 -84.0461 350° North 453 521 28,000  Level Atlanta Center
Wed 05:51:53 PM 32.0306 -84.0731 350° North 453 521 28,000  Level Atlanta Center
Wed 05:52:53 PM 32.1514 -84.1003 349° North 448 516 28,000  Level Atlanta Center
Wed 05:53:53 PM 32.2747 -84.1272 350° North 448 516 28,000  Level Atlanta Center
Wed 05:54:53 PM 32.3997 -84.1544 350° North 448 516 28,000  Level Atlanta Center
Wed 05:55:53 PM 32.5231 -84.1842 349° North 448 516 28,000  Level Atlanta Center
Wed 05:56:53 PM 32.6461 -84.2117 349° North 448 516 28,000  Level Atlanta Center
Wed 05:57:53 PM 32.7714 -84.2414 349° North 448 516 28,000  Level Atlanta Center
Wed 05:58:53 PM 32.8944 -84.2714 348° North 448 516 28,000  Level Atlanta Center
Wed 05:59:53 PM 33.0197 -84.2964 351° North 448 516 28,000  Level Atlanta Center
Wed 06:00:53 PM 33.1303 -84.3217 349° North 448 516 28,000  Level Atlanta Center
Wed 06:01:53 PM 33.2533 -84.3494 349° North 448 516 28,000  Level Atlanta Center
Wed 06:02:53 PM 33.3764 -84.3797 348° North 448 516 28,000  Level Atlanta Center
Wed 06:03:53 PM 33.4994 -84.4075 349° North 448 516 28,000  Level Atlanta Center
Wed 06:04:53 PM 33.6244 -84.4306 351° North 448 516 28,000  Level Atlanta Center
Wed 06:05:53 PM 33.7561 -84.4061 North 453 521 28,000  Level Atlanta Center
Wed 06:06:53 PM 33.8772 -84.3767 11° North 460 529 28,000  Level Atlanta Center
Wed 06:07:53 PM 34.0025 -84.3494 10° North 460 529 28,000  Level Atlanta Center
Wed 06:08:53 PM 34.1361 -84.3175 11° North 465 535 28,000  Level Atlanta Center
Wed 06:09:53 PM 34.2617 -84.2875 11° North 470 541 28,000  Level Atlanta Center
Wed 06:10:53 PM 34.3825 -84.2856 North 430 495 28,000  Level Atlanta Center
Wed 06:11:53 PM 34.4931 -84.3564 332° Northwest 428 493 28,000  Level Atlanta Center
Wed 06:12:53 PM 34.5972 -84.4247 332° Northwest 428 493 28,000  Level Atlanta Center
Wed 06:13:53 PM 34.7181 -84.4811 339° North 439 505 28,000  Level Atlanta Center
Wed 06:14:53 PM 34.8475 -84.4539 10° North 433 498 28,000  Level Atlanta Center
Wed 06:15:53 PM 34.9394 -84.3936 28° Northeast 412 474 28,000  Level Atlanta Center
Wed 06:16:53 PM 35.0567 -84.3025 32° Northeast 429 494 28,000  Level Atlanta Center
Wed 06:17:53 PM 35.1631 -84.2217 32° Northeast 444 511 28,000  Level Atlanta Center
Wed 06:18:53 PM 35.2697 -84.1356 33° Northeast 454 522 28,000  Level Atlanta Center
Wed 06:19:53 PM 35.3742 -84.0542 32° Northeast 454 522 28,000  Level Atlanta Center
Wed 06:20:53 PM 35.4867 -84.0031 20° North 427 491 28,000  Level Atlanta Center
Wed 06:21:53 PM 35.6056 -83.9800 North 427 491 28,000  Level Atlanta Center
Wed 06:22:53 PM 35.7328 -83.9544 North 440 506 28,000  Level Atlanta Center
Wed 06:23:53 PM 35.8642 -83.9261 10° North 458 527 28,000  Level Atlanta Center
Wed 06:24:53 PM 35.9956 -83.8975 10° North 473 544 28,000  Level Atlanta Center
Wed 06:25:53 PM 36.1186 -83.8717 10° North 467 537 28,000  Level Atlanta Center
Wed 06:28:15 PM 36.3961 -83.8117 10° North 457 526 28,000  Level Indianapolis Center
Wed 06:29:17 PM 36.5494 -83.7808 North 483 556 28,000  Level Indianapolis Center
Wed 06:30:19 PM 36.6836 -83.7572 North 489 563 28,000  Level Indianapolis Center
Wed 06:31:21 PM 36.8183 -83.7356 North 488 562 28,000  Level Indianapolis Center
Wed 06:32:22 PM 36.9533 -83.7106 North 489 563 28,000  Level Indianapolis Center
Wed 06:33:24 PM 37.0892 -83.6867 North 491 565 28,000  Level Indianapolis Center
Wed 06:34:26 PM 37.2494 -83.6600 North 495 570 28,000 -677 Level Indianapolis Center
Wed 06:35:28 PM 37.3844 -83.6356 North 490 564 26,600 -1,258 Descending Indianapolis Center
Wed 06:36:30 PM 37.5164 -83.6106 North 483 556 25,400 -1,258 Descending Indianapolis Center
Wed 06:37:32 PM 37.6439 -83.6028 North 468 539 24,000 -1,016 Descending Indianapolis Center
Wed 06:38:34 PM 37.7544 -83.6714 334° Northwest 445 512 23,300 -484 Descending Indianapolis Center
Wed 06:39:36 PM 37.8636 -83.7458 332° Northwest 445 512 23,000 -968 Descending Indianapolis Center
Wed 06:40:38 PM 37.9892 -83.8353 331° Northwest 444 511 21,300 -2,049 Descending Indianapolis Center
Wed 06:41:39 PM 38.0919 -83.9100 330° Northwest 431 496 18,800 -2,585 Descending Indianapolis Center
Wed 06:42:41 PM 38.1928 -83.9786 332° Northwest 415 478 16,000 -2,565 Descending Indianapolis Center
Wed 06:43:43 PM 38.2908 -84.0492 331° Northwest 406 467 13,500 -2,419 Descending Indianapolis Center
Wed 06:44:45 PM 38.3878 -84.1208 330° Northwest 403 464 11,000 -1,210 Descending Indianapolis Center
Wed 06:45:47 PM 38.4817 -84.1892 330° Northwest 391 450 11,000  Level Indianapolis Center
Wed 06:46:49 PM 38.5917 -84.2708 330° Northwest 392 451 11,000  Level Indianapolis Center
Wed 06:47:51 PM 38.6703 -84.3411 325° Northwest 385 443 11,000  Level Indianapolis Center
Wed 06:48:52 PM 38.7406 -84.4442 311° West 381 438 11,000  Level Indianapolis Center
Wed 06:49:54 PM 38.8519 -84.5025 338° Northwest 359 413 11,000 -375 Level Indianapolis Center
Wed 06:50:28 PM 38.9000 -84.5167 347° North 322 371 10,400 -1,085 Descending Cincinnati TRACON
Wed 06:51:28 PM 38.9833 -84.5500 343° North 299 344 9,300 -700 Descending Cincinnati TRACON
Wed 06:52:28 PM 39.0667 -84.5500 360° North 267 307 9,000 -350 Descending Cincinnati TRACON
Wed 06:53:28 PM 39.1333 -84.5500 360° North 238 274 8,600 -645 Descending Cincinnati TRACON
Wed 06:54:01 PM 39.1594 -84.5561 350° North 242 278 8,000 -1,137 Descending Indianapolis Center
Wed 06:55:03 PM 39.2247 -84.5556 360° North 233 268 6,800 -1,210 Descending Indianapolis Center
Wed 06:56:05 PM 39.2792 -84.5761 344° North 228 262 5,500 -1,161 Descending Indianapolis Center
Wed 06:57:07 PM 39.2531 -84.6186 232° Southwest 185 213 4,400 -1,077 Descending Indianapolis Center
Wed 06:57:23 PM 39.2333 -84.6333 210° Southwest 153 176 4,100 -732 Descending Cincinnati TRACON
Wed 06:58:29 PM 39.2000 -84.6667 218° Southwest 153 176 3,400 -714 Descending Cincinnati TRACON
Wed 06:59:29 PM 39.1500 -84.6667 180° South 164 189 2,600 -850 Descending Cincinnati TRACON
Wed 07:00:29 PM 39.1000 -84.6667 180° South 161 185 1,700 -900 Descending Cincinnati TRACON

Login

Don't have an account? Register now (free) for customized features, flight alerts, and more!